sensor_id;sensor_type;location;lat;lon;timestamp;P1;durP1;ratioP1;P2;durP2;ratioP2
6626;SDS011;3349;49.830;8.748;2022-11-11T00:00:49;11.23;;;8.10;;
6626;SDS011;3349;49.830;8.748;2022-11-11T00:03:16;11.20;;;8.20;;
6626;SDS011;3349;49.830;8.748;2022-11-11T00:05:42;13.30;;;8.63;;
6626;SDS011;3349;49.830;8.748;2022-11-11T00:08:09;14.93;;;9.02;;
6626;SDS011;3349;49.830;8.748;2022-11-11T00:10:37;11.75;;;8.48;;
6626;SDS011;3349;49.830;8.748;2022-11-11T00:13:04;12.30;;;7.95;;
6626;SDS011;3349;49.830;8.748;2022-11-11T00:15:31;10.93;;;7.63;;
6626;SDS011;3349;49.830;8.748;2022-11-11T00:18:02;13.73;;;7.38;;
6626;SDS011;3349;49.830;8.748;2022-11-11T00:20:47;12.68;;;7.80;;
6626;SDS011;3349;49.830;8.748;2022-11-11T00:23:31;11.13;;;7.57;;
6626;SDS011;3349;49.830;8.748;2022-11-11T00:26:16;13.10;;;8.45;;
6626;SDS011;3349;49.830;8.748;2022-11-11T00:28:43;10.77;;;8.23;;
6626;SDS011;3349;49.830;8.748;2022-11-11T00:31:10;13.38;;;8.90;;
6626;SDS011;3349;49.830;8.748;2022-11-11T00:33:38;14.73;;;9.93;;
6626;SDS011;3349;49.830;8.748;2022-11-11T00:36:05;16.25;;;9.68;;
6626;SDS011;3349;49.830;8.748;2022-11-11T00:38:32;15.90;;;9.73;;
6626;SDS011;3349;49.830;8.748;2022-11-11T00:41:12;17.55;;;11.45;;
6626;SDS011;3349;49.830;8.748;2022-11-11T00:43:41;19.83;;;11.98;;
6626;SDS011;3349;49.830;8.748;2022-11-11T00:46:08;19.92;;;12.45;;
6626;SDS011;3349;49.830;8.748;2022-11-11T00:48:53;19.67;;;11.52;;
6626;SDS011;3349;49.830;8.748;2022-11-11T00:51:37;18.40;;;10.77;;
6626;SDS011;3349;49.830;8.748;2022-11-11T00:54:05;14.05;;;8.38;;
6626;SDS011;3349;49.830;8.748;2022-11-11T00:56:32;13.57;;;8.13;;
6626;SDS011;3349;49.830;8.748;2022-11-11T00:59:02;12.10;;;7.93;;
6626;SDS011;3349;49.830;8.748;2022-11-11T01:01:30;11.75;;;8.05;;
6626;SDS011;3349;49.830;8.748;2022-11-11T01:03:56;14.52;;;8.20;;
6626;SDS011;3349;49.830;8.748;2022-11-11T01:06:23;10.68;;;8.23;;
6626;SDS011;3349;49.830;8.748;2022-11-11T01:08:51;14.85;;;7.63;;
6626;SDS011;3349;49.830;8.748;2022-11-11T01:11:19;15.13;;;7.90;;
6626;SDS011;3349;49.830;8.748;2022-11-11T01:13:47;9.90;;;7.13;;
6626;SDS011;3349;49.830;8.748;2022-11-11T01:16:17;11.93;;;7.03;;
6626;SDS011;3349;49.830;8.748;2022-11-11T01:18:45;14.20;;;7.20;;
6626;SDS011;3349;49.830;8.748;2022-11-11T01:21:13;17.48;;;8.10;;
6626;SDS011;3349;49.830;8.748;2022-11-11T01:23:41;11.38;;;7.97;;
6626;SDS011;3349;49.830;8.748;2022-11-11T01:26:10;15.45;;;8.82;;
6626;SDS011;3349;49.830;8.748;2022-11-11T01:28:39;10.53;;;8.10;;
6626;SDS011;3349;49.830;8.748;2022-11-11T01:31:07;12.95;;;7.20;;
6626;SDS011;3349;49.830;8.748;2022-11-11T01:33:36;14.32;;;8.45;;
6626;SDS011;3349;49.830;8.748;2022-11-11T01:36:04;14.40;;;7.55;;
6626;SDS011;3349;49.830;8.748;2022-11-11T01:38:33;10.38;;;7.55;;
6626;SDS011;3349;49.830;8.748;2022-11-11T01:41:00;11.40;;;7.47;;
6626;SDS011;3349;49.830;8.748;2022-11-11T01:43:48;17.15;;;8.35;;
6626;SDS011;3349;49.830;8.748;2022-11-11T01:46:16;12.70;;;7.50;;
6626;SDS011;3349;49.830;8.748;2022-11-11T01:48:52;10.03;;;6.93;;
6626;SDS011;3349;49.830;8.748;2022-11-11T01:51:40;13.88;;;7.43;;
6626;SDS011;3349;49.830;8.748;2022-11-11T01:54:11;9.70;;;6.90;;
6626;SDS011;3349;49.830;8.748;2022-11-11T01:56:41;12.25;;;7.15;;
6626;SDS011;3349;49.830;8.748;2022-11-11T01:59:12;11.00;;;7.50;;
6626;SDS011;3349;49.830;8.748;2022-11-11T02:01:41;12.13;;;6.88;;
6626;SDS011;3349;49.830;8.748;2022-11-11T02:04:10;11.52;;;8.10;;
6626;SDS011;3349;49.830;8.748;2022-11-11T02:06:56;11.32;;;7.07;;
6626;SDS011;3349;49.830;8.748;2022-11-11T02:09:25;13.10;;;7.43;;
6626;SDS011;3349;49.830;8.748;2022-11-11T02:11:53;22.95;;;12.88;;
6626;SDS011;3349;49.830;8.748;2022-11-11T02:14:39;23.40;;;12.85;;
6626;SDS011;3349;49.830;8.748;2022-11-11T02:17:10;16.27;;;9.17;;
6626;SDS011;3349;49.830;8.748;2022-11-11T02:19:43;12.53;;;7.10;;
6626;SDS011;3349;49.830;8.748;2022-11-11T02:22:11;12.18;;;7.28;;
6626;SDS011;3349;49.830;8.748;2022-11-11T02:24:44;9.90;;;6.93;;
6626;SDS011;3349;49.830;8.748;2022-11-11T02:27:12;12.18;;;7.35;;
6626;SDS011;3349;49.830;8.748;2022-11-11T02:29:41;11.15;;;7.07;;
6626;SDS011;3349;49.830;8.748;2022-11-11T02:32:11;12.27;;;7.77;;
6626;SDS011;3349;49.830;8.748;2022-11-11T02:34:37;11.90;;;8.30;;
6626;SDS011;3349;49.830;8.748;2022-11-11T02:37:05;11.88;;;8.48;;
6626;SDS011;3349;49.830;8.748;2022-11-11T02:39:34;10.55;;;7.88;;
6626;SDS011;3349;49.830;8.748;2022-11-11T02:42:06;13.73;;;8.00;;
6626;SDS011;3349;49.830;8.748;2022-11-11T02:44:34;14.25;;;9.38;;
6626;SDS011;3349;49.830;8.748;2022-11-11T02:47:02;12.77;;;11.00;;
6626;SDS011;3349;49.830;8.748;2022-11-11T02:49:29;10.83;;;8.13;;
6626;SDS011;3349;49.830;8.748;2022-11-11T02:51:56;18.52;;;8.00;;
6626;SDS011;3349;49.830;8.748;2022-11-11T02:54:23;9.52;;;6.82;;
6626;SDS011;3349;49.830;8.748;2022-11-11T02:56:49;11.93;;;6.73;;
6626;SDS011;3349;49.830;8.748;2022-11-11T02:59:36;8.05;;;5.88;;
6626;SDS011;3349;49.830;8.748;2022-11-11T03:02:05;10.07;;;6.93;;
6626;SDS011;3349;49.830;8.748;2022-11-11T03:04:32;10.43;;;6.68;;
6626;SDS011;3349;49.830;8.748;2022-11-11T03:06:59;11.02;;;6.38;;
6626;SDS011;3349;49.830;8.748;2022-11-11T03:09:26;8.77;;;6.05;;
6626;SDS011;3349;49.830;8.748;2022-11-11T03:11:53;9.53;;;6.23;;
6626;SDS011;3349;49.830;8.748;2022-11-11T03:14:19;8.88;;;5.97;;
6626;SDS011;3349;49.830;8.748;2022-11-11T03:16:47;13.23;;;7.17;;
6626;SDS011;3349;49.830;8.748;2022-11-11T03:19:32;10.90;;;6.38;;
6626;SDS011;3349;49.830;8.748;2022-11-11T03:21:59;10.43;;;7.45;;
6626;SDS011;3349;49.830;8.748;2022-11-11T03:24:27;10.20;;;6.75;;
6626;SDS011;3349;49.830;8.748;2022-11-11T03:27:14;10.35;;;6.18;;
6626;SDS011;3349;49.830;8.748;2022-11-11T03:29:40;12.45;;;7.40;;
6626;SDS011;3349;49.830;8.748;2022-11-11T03:32:08;10.88;;;6.82;;
6626;SDS011;3349;49.830;8.748;2022-11-11T03:34:35;10.32;;;6.55;;
6626;SDS011;3349;49.830;8.748;2022-11-11T03:37:02;8.87;;;6.53;;
6626;SDS011;3349;49.830;8.748;2022-11-11T03:39:48;10.75;;;6.25;;
6626;SDS011;3349;49.830;8.748;2022-11-11T03:42:15;10.65;;;6.57;;
6626;SDS011;3349;49.830;8.748;2022-11-11T03:44:42;10.05;;;6.57;;
6626;SDS011;3349;49.830;8.748;2022-11-11T03:47:10;8.35;;;6.22;;
6626;SDS011;3349;49.830;8.748;2022-11-11T03:49:36;10.60;;;7.22;;
6626;SDS011;3349;49.830;8.748;2022-11-11T03:52:03;8.18;;;6.07;;
6626;SDS011;3349;49.830;8.748;2022-11-11T03:54:30;10.90;;;6.33;;
6626;SDS011;3349;49.830;8.748;2022-11-11T03:56:57;8.60;;;5.72;;
6626;SDS011;3349;49.830;8.748;2022-11-11T03:59:37;11.07;;;5.83;;
6626;SDS011;3349;49.830;8.748;2022-11-11T04:02:04;13.63;;;5.88;;
6626;SDS011;3349;49.830;8.748;2022-11-11T04:04:46;7.10;;;5.63;;
6626;SDS011;3349;49.830;8.748;2022-11-11T04:07:30;11.65;;;5.75;;
6626;SDS011;3349;49.830;8.748;2022-11-11T04:10:14;9.02;;;5.28;;
6626;SDS011;3349;49.830;8.748;2022-11-11T04:12:50;9.82;;;5.88;;
6626;SDS011;3349;49.830;8.748;2022-11-11T04:15:37;10.10;;;5.67;;
6626;SDS011;3349;49.830;8.748;2022-11-11T04:18:21;6.47;;;5.00;;
6626;SDS011;3349;49.830;8.748;2022-11-11T04:21:09;8.57;;;6.13;;
6626;SDS011;3349;49.830;8.748;2022-11-11T04:23:53;12.30;;;5.57;;
6626;SDS011;3349;49.830;8.748;2022-11-11T04:26:20;9.13;;;5.33;;
6626;SDS011;3349;49.830;8.748;2022-11-11T04:28:46;7.07;;;5.40;;
6626;SDS011;3349;49.830;8.748;2022-11-11T04:31:30;9.70;;;5.30;;
6626;SDS011;3349;49.830;8.748;2022-11-11T04:33:57;7.03;;;5.10;;
6626;SDS011;3349;49.830;8.748;2022-11-11T04:36:24;7.03;;;5.13;;
6626;SDS011;3349;49.830;8.748;2022-11-11T04:38:51;9.70;;;5.23;;
6626;SDS011;3349;49.830;8.748;2022-11-11T04:41:35;9.50;;;5.83;;
6626;SDS011;3349;49.830;8.748;2022-11-11T04:44:02;6.60;;;5.70;;
6626;SDS011;3349;49.830;8.748;2022-11-11T04:46:47;8.87;;;5.97;;
6626;SDS011;3349;49.830;8.748;2022-11-11T04:49:14;8.93;;;6.10;;
6626;SDS011;3349;49.830;8.748;2022-11-11T04:51:42;8.85;;;5.85;;
6626;SDS011;3349;49.830;8.748;2022-11-11T04:54:26;8.40;;;5.53;;
6626;SDS011;3349;49.830;8.748;2022-11-11T04:56:52;7.22;;;5.47;;
6626;SDS011;3349;49.830;8.748;2022-11-11T04:59:18;7.47;;;5.27;;
6626;SDS011;3349;49.830;8.748;2022-11-11T05:01:45;7.57;;;5.20;;
6626;SDS011;3349;49.830;8.748;2022-11-11T05:04:29;6.88;;;4.70;;
6626;SDS011;3349;49.830;8.748;2022-11-11T05:06:57;7.30;;;5.00;;
6626;SDS011;3349;49.830;8.748;2022-11-11T05:09:41;7.60;;;4.77;;
6626;SDS011;3349;49.830;8.748;2022-11-11T05:12:08;9.10;;;5.00;;
6626;SDS011;3349;49.830;8.748;2022-11-11T05:14:35;8.75;;;4.55;;
6626;SDS011;3349;49.830;8.748;2022-11-11T05:17:19;8.50;;;4.60;;
6626;SDS011;3349;49.830;8.748;2022-11-11T05:20:03;8.70;;;4.70;;
6626;SDS011;3349;49.830;8.748;2022-11-11T05:22:49;6.57;;;4.23;;
6626;SDS011;3349;49.830;8.748;2022-11-11T05:25:16;13.63;;;4.50;;
6626;SDS011;3349;49.830;8.748;2022-11-11T05:27:51;6.47;;;4.37;;
6626;SDS011;3349;49.830;8.748;2022-11-11T05:30:19;5.97;;;4.67;;
6626;SDS011;3349;49.830;8.748;2022-11-11T05:32:46;5.68;;;4.13;;
6626;SDS011;3349;49.830;8.748;2022-11-11T05:35:14;8.50;;;4.43;;
6626;SDS011;3349;49.830;8.748;2022-11-11T05:37:42;7.93;;;4.53;;
6626;SDS011;3349;49.830;8.748;2022-11-11T05:40:30;8.67;;;4.83;;
6626;SDS011;3349;49.830;8.748;2022-11-11T05:42:57;7.70;;;5.30;;
6626;SDS011;3349;49.830;8.748;2022-11-11T05:45:24;8.20;;;5.20;;
6626;SDS011;3349;49.830;8.748;2022-11-11T05:47:50;14.27;;;6.35;;
6626;SDS011;3349;49.830;8.748;2022-11-11T05:50:17;13.73;;;7.73;;
6626;SDS011;3349;49.830;8.748;2022-11-11T05:52:46;11.13;;;6.97;;
6626;SDS011;3349;49.830;8.748;2022-11-11T05:55:13;12.47;;;6.60;;
6626;SDS011;3349;49.830;8.748;2022-11-11T05:57:42;9.03;;;5.93;;
6626;SDS011;3349;49.830;8.748;2022-11-11T06:00:09;7.73;;;5.50;;
6626;SDS011;3349;49.830;8.748;2022-11-11T06:02:36;8.10;;;5.83;;
6626;SDS011;3349;49.830;8.748;2022-11-11T06:05:03;15.20;;;6.07;;
6626;SDS011;3349;49.830;8.748;2022-11-11T06:07:31;7.30;;;5.15;;
6626;SDS011;3349;49.830;8.748;2022-11-11T06:09:58;9.63;;;5.50;;
6626;SDS011;3349;49.830;8.748;2022-11-11T06:12:42;8.47;;;5.53;;
6626;SDS011;3349;49.830;8.748;2022-11-11T06:15:22;7.95;;;5.38;;
6626;SDS011;3349;49.830;8.748;2022-11-11T06:17:50;7.80;;;5.40;;
6626;SDS011;3349;49.830;8.748;2022-11-11T06:20:17;7.43;;;5.80;;
6626;SDS011;3349;49.830;8.748;2022-11-11T06:22:43;7.93;;;5.68;;
6626;SDS011;3349;49.830;8.748;2022-11-11T06:25:22;10.53;;;6.47;;
6626;SDS011;3349;49.830;8.748;2022-11-11T06:28:09;12.27;;;6.43;;
6626;SDS011;3349;49.830;8.748;2022-11-11T06:30:35;13.55;;;7.10;;
6626;SDS011;3349;49.830;8.748;2022-11-11T06:33:02;13.25;;;7.40;;
6626;SDS011;3349;49.830;8.748;2022-11-11T06:35:31;12.40;;;7.77;;
6626;SDS011;3349;49.830;8.748;2022-11-11T06:37:58;14.80;;;7.30;;
6626;SDS011;3349;49.830;8.748;2022-11-11T06:40:25;13.55;;;8.30;;
6626;SDS011;3349;49.830;8.748;2022-11-11T06:42:52;12.10;;;7.82;;
6626;SDS011;3349;49.830;8.748;2022-11-11T06:45:20;14.45;;;8.30;;
6626;SDS011;3349;49.830;8.748;2022-11-11T06:47:47;13.23;;;8.18;;
6626;SDS011;3349;49.830;8.748;2022-11-11T06:50:14;26.52;;;9.43;;
6626;SDS011;3349;49.830;8.748;2022-11-11T06:52:41;21.65;;;11.05;;
6626;SDS011;3349;49.830;8.748;2022-11-11T06:55:08;23.77;;;10.60;;
6626;SDS011;3349;49.830;8.748;2022-11-11T06:57:34;20.90;;;10.85;;
6626;SDS011;3349;49.830;8.748;2022-11-11T07:00:02;23.77;;;11.05;;
6626;SDS011;3349;49.830;8.748;2022-11-11T07:02:30;24.80;;;10.95;;
6626;SDS011;3349;49.830;8.748;2022-11-11T07:04:58;28.95;;;10.55;;
6626;SDS011;3349;49.830;8.748;2022-11-11T07:07:25;31.48;;;10.90;;
6626;SDS011;3349;49.830;8.748;2022-11-11T07:09:52;24.60;;;10.75;;
6626;SDS011;3349;49.830;8.748;2022-11-11T07:12:20;32.42;;;9.10;;
6626;SDS011;3349;49.830;8.748;2022-11-11T07:14:47;22.85;;;8.82;;
6626;SDS011;3349;49.830;8.748;2022-11-11T07:17:13;23.45;;;7.10;;
6626;SDS011;3349;49.830;8.748;2022-11-11T07:19:41;28.98;;;6.07;;
6626;SDS011;3349;49.830;8.748;2022-11-11T07:22:08;16.90;;;6.57;;
6626;SDS011;3349;49.830;8.748;2022-11-11T07:24:35;32.33;;;6.22;;
6626;SDS011;3349;49.830;8.748;2022-11-11T07:27:02;22.85;;;6.47;;
6626;SDS011;3349;49.830;8.748;2022-11-11T07:29:28;8.23;;;5.53;;
6626;SDS011;3349;49.830;8.748;2022-11-11T07:31:55;7.72;;;5.00;;
6626;SDS011;3349;49.830;8.748;2022-11-11T07:34:22;5.45;;;3.90;;
6626;SDS011;3349;49.830;8.748;2022-11-11T07:36:50;6.65;;;4.35;;
6626;SDS011;3349;49.830;8.748;2022-11-11T07:39:16;6.80;;;5.15;;
6626;SDS011;3349;49.830;8.748;2022-11-11T07:41:43;8.40;;;5.65;;
6626;SDS011;3349;49.830;8.748;2022-11-11T07:44:10;19.98;;;5.75;;
6626;SDS011;3349;49.830;8.748;2022-11-11T07:46:36;10.38;;;5.75;;
6626;SDS011;3349;49.830;8.748;2022-11-11T07:49:03;22.83;;;5.65;;
6626;SDS011;3349;49.830;8.748;2022-11-11T07:51:29;22.40;;;6.35;;
6626;SDS011;3349;49.830;8.748;2022-11-11T07:53:58;24.48;;;5.88;;
6626;SDS011;3349;49.830;8.748;2022-11-11T07:56:24;28.27;;;7.25;;
6626;SDS011;3349;49.830;8.748;2022-11-11T07:58:51;24.20;;;6.10;;
6626;SDS011;3349;49.830;8.748;2022-11-11T08:01:18;24.45;;;6.82;;
6626;SDS011;3349;49.830;8.748;2022-11-11T08:03:45;45.22;;;6.18;;
6626;SDS011;3349;49.830;8.748;2022-11-11T08:06:14;26.65;;;6.20;;
6626;SDS011;3349;49.830;8.748;2022-11-11T08:08:42;42.85;;;8.43;;
6626;SDS011;3349;49.830;8.748;2022-11-11T08:11:10;22.23;;;7.88;;
6626;SDS011;3349;49.830;8.748;2022-11-11T08:13:37;43.33;;;8.75;;
6626;SDS011;3349;49.830;8.748;2022-11-11T08:16:05;38.83;;;8.20;;
6626;SDS011;3349;49.830;8.748;2022-11-11T08:18:32;37.97;;;7.80;;
6626;SDS011;3349;49.830;8.748;2022-11-11T08:20:59;25.20;;;7.95;;
6626;SDS011;3349;49.830;8.748;2022-11-11T08:23:26;28.38;;;8.77;;
6626;SDS011;3349;49.830;8.748;2022-11-11T08:25:57;26.90;;;8.25;;
6626;SDS011;3349;49.830;8.748;2022-11-11T08:28:25;37.78;;;8.50;;
6626;SDS011;3349;49.830;8.748;2022-11-11T08:30:53;35.70;;;8.95;;
6626;SDS011;3349;49.830;8.748;2022-11-11T08:33:20;33.65;;;7.93;;
6626;SDS011;3349;49.830;8.748;2022-11-11T08:35:47;33.80;;;8.38;;
6626;SDS011;3349;49.830;8.748;2022-11-11T08:38:14;24.25;;;8.70;;
6626;SDS011;3349;49.830;8.748;2022-11-11T08:40:41;23.45;;;8.38;;
6626;SDS011;3349;49.830;8.748;2022-11-11T08:43:08;29.08;;;8.18;;
6626;SDS011;3349;49.830;8.748;2022-11-11T08:45:36;21.98;;;8.25;;
6626;SDS011;3349;49.830;8.748;2022-11-11T08:48:05;18.80;;;7.45;;
6626;SDS011;3349;49.830;8.748;2022-11-11T08:50:34;23.50;;;9.20;;
6626;SDS011;3349;49.830;8.748;2022-11-11T08:53:01;40.72;;;16.77;;
6626;SDS011;3349;49.830;8.748;2022-11-11T08:55:27;26.45;;;9.88;;
6626;SDS011;3349;49.830;8.748;2022-11-11T08:57:57;21.50;;;8.90;;
6626;SDS011;3349;49.830;8.748;2022-11-11T09:00:25;21.42;;;8.43;;
6626;SDS011;3349;49.830;8.748;2022-11-11T09:02:54;23.50;;;7.93;;
6626;SDS011;3349;49.830;8.748;2022-11-11T09:05:25;36.10;;;11.60;;
6626;SDS011;3349;49.830;8.748;2022-11-11T09:07:51;43.15;;;9.25;;
6626;SDS011;3349;49.830;8.748;2022-11-11T09:10:18;16.08;;;10.18;;
6626;SDS011;3349;49.830;8.748;2022-11-11T09:12:45;21.17;;;10.15;;
6626;SDS011;3349;49.830;8.748;2022-11-11T09:15:11;22.42;;;10.68;;
6626;SDS011;3349;49.830;8.748;2022-11-11T09:17:38;18.33;;;8.63;;
6626;SDS011;3349;49.830;8.748;2022-11-11T09:20:12;34.25;;;9.23;;
6626;SDS011;3349;49.830;8.748;2022-11-11T09:22:40;30.67;;;9.15;;
6626;SDS011;3349;49.830;8.748;2022-11-11T09:25:08;35.92;;;9.80;;
6626;SDS011;3349;49.830;8.748;2022-11-11T09:27:34;37.75;;;9.63;;
6626;SDS011;3349;49.830;8.748;2022-11-11T09:30:01;39.90;;;10.20;;
6626;SDS011;3349;49.830;8.748;2022-11-11T09:32:28;22.98;;;8.77;;
6626;SDS011;3349;49.830;8.748;2022-11-11T09:34:55;30.27;;;9.20;;
6626;SDS011;3349;49.830;8.748;2022-11-11T09:37:23;31.52;;;10.43;;
6626;SDS011;3349;49.830;8.748;2022-11-11T09:39:50;25.67;;;9.40;;
6626;SDS011;3349;49.830;8.748;2022-11-11T09:42:24;21.27;;;8.38;;
6626;SDS011;3349;49.830;8.748;2022-11-11T09:45:09;25.02;;;9.75;;
6626;SDS011;3349;49.830;8.748;2022-11-11T09:47:45;13.20;;;8.63;;
6626;SDS011;3349;49.830;8.748;2022-11-11T09:50:20;14.30;;;9.60;;
6626;SDS011;3349;49.830;8.748;2022-11-11T09:52:50;19.00;;;10.55;;
6626;SDS011;3349;49.830;8.748;2022-11-11T09:55:23;15.50;;;10.13;;
6626;SDS011;3349;49.830;8.748;2022-11-11T09:57:53;12.45;;;9.25;;
6626;SDS011;3349;49.830;8.748;2022-11-11T10:00:24;12.35;;;9.80;;
6626;SDS011;3349;49.830;8.748;2022-11-11T10:02:53;13.65;;;9.45;;
6626;SDS011;3349;49.830;8.748;2022-11-11T10:05:23;13.45;;;8.77;;
6626;SDS011;3349;49.830;8.748;2022-11-11T10:07:54;12.18;;;9.30;;
6626;SDS011;3349;49.830;8.748;2022-11-11T10:10:26;19.08;;;9.60;;
6626;SDS011;3349;49.830;8.748;2022-11-11T10:12:59;18.30;;;9.60;;
6626;SDS011;3349;49.830;8.748;2022-11-11T10:15:28;13.82;;;9.57;;
6626;SDS011;3349;49.830;8.748;2022-11-11T10:18:07;13.52;;;10.00;;
6626;SDS011;3349;49.830;8.748;2022-11-11T10:20:46;15.82;;;10.00;;
6626;SDS011;3349;49.830;8.748;2022-11-11T10:23:19;12.60;;;9.85;;
6626;SDS011;3349;49.830;8.748;2022-11-11T10:25:50;13.02;;;10.00;;
6626;SDS011;3349;49.830;8.748;2022-11-11T10:28:20;14.10;;;10.00;;
6626;SDS011;3349;49.830;8.748;2022-11-11T10:30:49;14.48;;;9.95;;
6626;SDS011;3349;49.830;8.748;2022-11-11T10:33:18;14.10;;;9.50;;
6626;SDS011;3349;49.830;8.748;2022-11-11T10:35:49;14.65;;;10.15;;
6626;SDS011;3349;49.830;8.748;2022-11-11T10:38:25;14.45;;;10.95;;
6626;SDS011;3349;49.830;8.748;2022-11-11T10:41:00;14.45;;;11.00;;
6626;SDS011;3349;49.830;8.748;2022-11-11T10:43:35;18.63;;;11.15;;
6626;SDS011;3349;49.830;8.748;2022-11-11T10:46:03;13.10;;;10.73;;
6626;SDS011;3349;49.830;8.748;2022-11-11T10:48:37;16.95;;;9.80;;
6626;SDS011;3349;49.830;8.748;2022-11-11T10:51:11;12.98;;;10.23;;
6626;SDS011;3349;49.830;8.748;2022-11-11T10:53:41;12.55;;;9.82;;
6626;SDS011;3349;49.830;8.748;2022-11-11T10:56:15;13.02;;;10.85;;
6626;SDS011;3349;49.830;8.748;2022-11-11T10:58:47;12.25;;;9.32;;
6626;SDS011;3349;49.830;8.748;2022-11-11T11:01:17;11.98;;;10.23;;
6626;SDS011;3349;49.830;8.748;2022-11-11T11:03:49;11.73;;;9.35;;
6626;SDS011;3349;49.830;8.748;2022-11-11T11:06:21;15.05;;;10.65;;
6626;SDS011;3349;49.830;8.748;2022-11-11T11:08:52;11.82;;;9.70;;
6626;SDS011;3349;49.830;8.748;2022-11-11T11:11:22;18.65;;;13.23;;
6626;SDS011;3349;49.830;8.748;2022-11-11T11:13:56;16.88;;;10.50;;
6626;SDS011;3349;49.830;8.748;2022-11-11T11:16:26;16.10;;;10.20;;
6626;SDS011;3349;49.830;8.748;2022-11-11T11:19:13;13.65;;;9.80;;
6626;SDS011;3349;49.830;8.748;2022-11-11T11:21:52;14.82;;;9.93;;
6626;SDS011;3349;49.830;8.748;2022-11-11T11:24:21;11.13;;;9.80;;
6626;SDS011;3349;49.830;8.748;2022-11-11T11:26:50;12.00;;;10.18;;
6626;SDS011;3349;49.830;8.748;2022-11-11T11:29:25;11.27;;;9.88;;
6626;SDS011;3349;49.830;8.748;2022-11-11T11:31:54;11.48;;;9.60;;
6626;SDS011;3349;49.830;8.748;2022-11-11T11:34:22;11.20;;;9.88;;
6626;SDS011;3349;49.830;8.748;2022-11-11T11:37:09;9.82;;;8.75;;
6626;SDS011;3349;49.830;8.748;2022-11-11T11:39:37;16.10;;;10.40;;
6626;SDS011;3349;49.830;8.748;2022-11-11T11:42:05;12.50;;;10.98;;
6626;SDS011;3349;49.830;8.748;2022-11-11T11:44:32;14.93;;;11.18;;
6626;SDS011;3349;49.830;8.748;2022-11-11T11:47:02;13.90;;;11.50;;
6626;SDS011;3349;49.830;8.748;2022-11-11T11:49:44;14.13;;;12.15;;
6626;SDS011;3349;49.830;8.748;2022-11-11T11:52:24;12.90;;;11.57;;
6626;SDS011;3349;49.830;8.748;2022-11-11T11:55:00;17.35;;;12.57;;
6626;SDS011;3349;49.830;8.748;2022-11-11T11:57:36;17.00;;;13.23;;
6626;SDS011;3349;49.830;8.748;2022-11-11T12:00:12;15.75;;;13.00;;
6626;SDS011;3349;49.830;8.748;2022-11-11T12:05:46;13.07;;;11.25;;
6626;SDS011;3349;49.830;8.748;2022-11-11T12:08:22;13.52;;;12.00;;
6626;SDS011;3349;49.830;8.748;2022-11-11T12:11:04;13.52;;;12.07;;
6626;SDS011;3349;49.830;8.748;2022-11-11T12:13:40;17.00;;;12.55;;
6626;SDS011;3349;49.830;8.748;2022-11-11T12:16:23;14.15;;;12.20;;
6626;SDS011;3349;49.830;8.748;2022-11-11T12:18:59;15.48;;;11.85;;
6626;SDS011;3349;49.830;8.748;2022-11-11T12:21:45;14.82;;;11.20;;
6626;SDS011;3349;49.830;8.748;2022-11-11T12:24:37;18.75;;;11.77;;
6626;SDS011;3349;49.830;8.748;2022-11-11T12:27:16;15.82;;;12.20;;
6626;SDS011;3349;49.830;8.748;2022-11-11T12:29:54;15.15;;;11.25;;
6626;SDS011;3349;49.830;8.748;2022-11-11T12:35:32;19.90;;;11.90;;
6626;SDS011;3349;49.830;8.748;2022-11-11T12:38:15;16.08;;;11.85;;
6626;SDS011;3349;49.830;8.748;2022-11-11T12:40:58;23.33;;;11.93;;
6626;SDS011;3349;49.830;8.748;2022-11-11T12:43:33;16.92;;;11.43;;
6626;SDS011;3349;49.830;8.748;2022-11-11T12:46:10;21.48;;;12.55;;
6626;SDS011;3349;49.830;8.748;2022-11-11T12:48:47;25.02;;;13.02;;
6626;SDS011;3349;49.830;8.748;2022-11-11T12:51:26;22.20;;;13.23;;
6626;SDS011;3349;49.830;8.748;2022-11-11T12:54:04;18.42;;;12.68;;
6626;SDS011;3349;49.830;8.748;2022-11-11T12:56:42;17.25;;;13.48;;
6626;SDS011;3349;49.830;8.748;2022-11-11T12:59:19;17.85;;;12.65;;
6626;SDS011;3349;49.830;8.748;2022-11-11T13:01:58;16.73;;;12.25;;
6626;SDS011;3349;49.830;8.748;2022-11-11T13:04:42;16.65;;;11.85;;
6626;SDS011;3349;49.830;8.748;2022-11-11T13:07:26;21.23;;;13.27;;
6626;SDS011;3349;49.830;8.748;2022-11-11T13:10:15;18.45;;;13.10;;
6626;SDS011;3349;49.830;8.748;2022-11-11T13:12:52;20.13;;;13.48;;
6626;SDS011;3349;49.830;8.748;2022-11-11T13:15:26;26.60;;;13.90;;
6626;SDS011;3349;49.830;8.748;2022-11-11T13:17:53;29.13;;;14.18;;
6626;SDS011;3349;49.830;8.748;2022-11-11T13:20:33;30.80;;;14.05;;
6626;SDS011;3349;49.830;8.748;2022-11-11T13:23:07;19.20;;;13.02;;
6626;SDS011;3349;49.830;8.748;2022-11-11T13:25:34;16.52;;;13.40;;
6626;SDS011;3349;49.830;8.748;2022-11-11T13:28:05;24.20;;;12.80;;
6626;SDS011;3349;49.830;8.748;2022-11-11T13:30:45;21.88;;;13.75;;
6626;SDS011;3349;49.830;8.748;2022-11-11T13:33:23;21.05;;;14.75;;
6626;SDS011;3349;49.830;8.748;2022-11-11T13:35:52;19.40;;;14.95;;
6626;SDS011;3349;49.830;8.748;2022-11-11T13:38:24;18.77;;;13.90;;
6626;SDS011;3349;49.830;8.748;2022-11-11T13:40:53;19.60;;;14.65;;
6626;SDS011;3349;49.830;8.748;2022-11-11T13:43:23;21.40;;;14.75;;
6626;SDS011;3349;49.830;8.748;2022-11-11T13:45:55;19.42;;;14.80;;
6626;SDS011;3349;49.830;8.748;2022-11-11T13:48:25;19.63;;;14.05;;
6626;SDS011;3349;49.830;8.748;2022-11-11T13:51:08;16.70;;;13.85;;
6626;SDS011;3349;49.830;8.748;2022-11-11T13:53:37;18.00;;;13.88;;
6626;SDS011;3349;49.830;8.748;2022-11-11T13:56:05;20.70;;;14.98;;
6626;SDS011;3349;49.830;8.748;2022-11-11T13:58:35;17.77;;;13.57;;
6626;SDS011;3349;49.830;8.748;2022-11-11T14:01:06;20.65;;;14.27;;
6626;SDS011;3349;49.830;8.748;2022-11-11T14:03:36;21.38;;;14.05;;
6626;SDS011;3349;49.830;8.748;2022-11-11T14:15:04;19.90;;;16.42;;
6626;SDS011;3349;49.830;8.748;2022-11-11T14:17:33;22.75;;;16.88;;
6626;SDS011;3349;49.830;8.748;2022-11-11T14:23:15;21.40;;;16.58;;
6626;SDS011;3349;49.830;8.748;2022-11-11T14:25:49;19.35;;;15.63;;
6626;SDS011;3349;49.830;8.748;2022-11-11T14:28:21;20.85;;;15.20;;
6626;SDS011;3349;49.830;8.748;2022-11-11T14:30:51;21.60;;;16.50;;
6626;SDS011;3349;49.830;8.748;2022-11-11T14:33:22;18.80;;;14.45;;
6626;SDS011;3349;49.830;8.748;2022-11-11T14:36:09;19.73;;;15.02;;
6626;SDS011;3349;49.830;8.748;2022-11-11T14:38:46;20.58;;;16.92;;
6626;SDS011;3349;49.830;8.748;2022-11-11T14:47:17;32.53;;;19.55;;
6626;SDS011;3349;49.830;8.748;2022-11-11T14:49:51;26.45;;;18.88;;
6626;SDS011;3349;49.830;8.748;2022-11-11T14:52:22;30.95;;;20.63;;
6626;SDS011;3349;49.830;8.748;2022-11-11T14:54:57;31.98;;;22.15;;
6626;SDS011;3349;49.830;8.748;2022-11-11T14:57:32;31.48;;;22.95;;
6626;SDS011;3349;49.830;8.748;2022-11-11T15:00:04;39.13;;;23.40;;
6626;SDS011;3349;49.830;8.748;2022-11-11T15:02:37;43.85;;;23.88;;
6626;SDS011;3349;49.830;8.748;2022-11-11T15:05:19;37.47;;;24.52;;
6626;SDS011;3349;49.830;8.748;2022-11-11T15:08:01;39.40;;;23.48;;
6626;SDS011;3349;49.830;8.748;2022-11-11T15:13:36;40.22;;;23.63;;
6626;SDS011;3349;49.830;8.748;2022-11-11T15:16:27;39.47;;;23.52;;
6626;SDS011;3349;49.830;8.748;2022-11-11T15:22:03;60.08;;;23.13;;
6626;SDS011;3349;49.830;8.748;2022-11-11T15:24:42;57.80;;;22.55;;
6626;SDS011;3349;49.830;8.748;2022-11-11T15:27:19;72.45;;;22.02;;
6626;SDS011;3349;49.830;8.748;2022-11-11T15:29:54;68.28;;;20.60;;
6626;SDS011;3349;49.830;8.748;2022-11-11T15:32:30;54.88;;;22.65;;
6626;SDS011;3349;49.830;8.748;2022-11-11T15:35:07;74.70;;;22.08;;
6626;SDS011;3349;49.830;8.748;2022-11-11T15:37:51;46.90;;;20.20;;
6626;SDS011;3349;49.830;8.748;2022-11-11T15:40:20;75.82;;;20.13;;
6626;SDS011;3349;49.830;8.748;2022-11-11T15:42:48;90.85;;;21.27;;
6626;SDS011;3349;49.830;8.748;2022-11-11T15:45:19;125.15;;;21.20;;
6626;SDS011;3349;49.830;8.748;2022-11-11T15:47:49;66.50;;;21.50;;
6626;SDS011;3349;49.830;8.748;2022-11-11T15:50:26;73.10;;;19.67;;
6626;SDS011;3349;49.830;8.748;2022-11-11T15:52:58;101.93;;;20.45;;
6626;SDS011;3349;49.830;8.748;2022-11-11T15:55:25;69.10;;;19.58;;